Terminal Aerodrome Forecast
Issued by NWS

Home | Current Version | Previous Version | Graphics & Text | Print | Product List | Glossary On
Versions: 1 2 3 4 5 6 7 8 9 10 11 12 13 14 15 16 17 18 19 20 21
095
FTUS43 KGRB 140520
TAFCWA
TAF
KCWA 140520Z 1406/1506 12003KT P6SM SCT080 BKN120
     FM141500 19007KT P6SM SCT035 BKN080 PROB30 1417/1420 -SHRA
      BKN035
     FM142000 13005KT P6SM -SHRA SCT025 OVC050
      TEMPO 1420/1424 5SM -TSRA BR OVC025CB
     FM150000 05003KT 5SM -SHRA BR SCT015 OVC025
     FM150400 05003KT 3SM -SHRA BR BKN007=

USA.gov is the U.S. government's official web portal to all federal, state and local government web resources and services.